AirNav   ProFlight Series 2 Aviation Headset
 
 447 users online  

5OK3 Stearmans Roost Airport
Vinita, Oklahoma, USA

GOING TO VINITA?


FAA INFORMATION EFFECTIVE 16 JULY 2020

Location

FAA Identifier: 5OK3
Lat/Long: 36-29-18.3110N 095-08-37.8780W
36-29.305183N 095-08.631300W
36.4884197,-95.1438550
(estimated)
Elevation: 702 ft. / 214 m (estimated)
Variation: 05E (1985)
From city: 10 miles S of VINITA, OK
Time zone: UTC -5 (UTC -6 during Standard Time)
Zip code: 74332

Airport Operations

Airport use: Private use. Permission required prior to landing
Activation date: 12/1977
Control tower: no
ARTCC: KANSAS CITY CENTER
FSS: MC ALESTER FLIGHT SERVICE STATION
Attendance: CONTINUOUS
Wind indicator: yes
Segmented circle: no

Airport Communications

WX AWOS-3PT at H71 (18 nm SW): 120.1 (918-476-0517)

Nearby radio navigation aids

VOR radial/distance  VOR name  Freq  Var
TULr053/35.7TULSA VORTAC114.4008E

 
NDB name  Hdg/Dist  Freq  Var  ID
SILOAM SPRINGS296/36.428404ESLG ... .-.. --.

Airport Services

Airframe service: MAJOR
Powerplant service: MAJOR

Runway Information

Runway 9/27

Dimensions: 4000 x 100 ft. / 1219 x 30 m
Surface: turf
RUNWAY 9  RUNWAY 27
Traffic pattern: leftleft

Airport Ownership and Management from official FAA records

Ownership: Privately-owned
Owner: GEORGE O COLVIN
36526 S 4410 RD
BIG CABIN, OK 74332
Phone 918-557-1999
Manager: GEORGE O COLVIN
36526 S 4410 RD
BIG CABIN, OK 74332
Phone 918-557-1999

Airport Operational Statistics

Aircraft based on the field: 6
Single engine airplanes: 6
    

Additional Remarks

FOR CD CTC KANSAS CITY ARTCC AT 913-254-8508.

Instrument Procedures

There are no published instrument procedures at 5OK3.

Some nearby airports with instrument procedures:

1K8 - South Grand Lake Regional Airport (7 nm NE)
H71 - Mid-America Industrial Airport (18 nm SW)
KGCM - Claremore Regional Airport (20 nm SW)
KGMJ - Grove Municipal Airport (21 nm E)
KMIO - Miami Regional Airport (28 nm NE)
 
Loc | Ops | Rwys | IFR | FBO | Links
Com | Nav | Svcs | Stats | Notes
Area around 5OK3 (Stearmans Roost Airport)
 
Road maps at: MapQuest Bing Google
 
Aerial photo
No photo
 
Sectional chart

 
Airport distance calculator
Flying to Stearmans Roost Airport? Find the distance to fly.

From to 5OK3

Sunrise and sunset
Times for 06-Aug-2020
 Local
(UTC-5)
 Zulu
(UTC)
Morning civil twilight06:0511:05
Sunrise06:3311:33
Sunset20:2001:20
Evening civil twilight20:4801:48

Current date and time
Zulu (UTC)  06-Aug-2020 10:06:43
Local (UTC-5)  06-Aug-2020 05:06:43
 
METAR
KH71 
18nm SW 
060955Z AUTO 00000KT 9SM 18/18 A3001 RMK AO2
KGCM 
20nm SW 
060955Z AUTO 00000KT 10SM CLR 19/16 A3003 RMK AO2
KGMJ 
21nm E 
060955Z AUTO 00000KT 10SM CLR 18/17 A3005 RMK AO2
KMIO 
28nm NE 
060955Z AUTO 14003KT 10SM CLR 20/18 A3002 RMK AO2
KTQH 
34nm S 
060955Z AUTO 00000KT 10SM CLR 18/17 A3004 RMK AO2
TAF
KTUL 
40nm SW 
060520Z 0606/0706 14004KT P6SM SCT250 FM061800 16011KT P6SM BKN100
KXNA 
43nm E 
060520Z 0606/0706 00000KT P6SM SCT250 FM061500 16008KT P6SM BKN120 FM070200 VRB02KT P6SM BKN100
KBVO 
45nm W 
060520Z 0606/0706 VRB03KT P6SM SCT250 FM061800 16010KT P6SM BKN100
KRVS 
48nm SW 
060520Z 0606/0706 00000KT P6SM SCT250 FM061800 16009KT P6SM BKN100
NOTAMs
Click for the latest NOTAMs
NOTAMs are issued by the DoD/FAA and will open in a separate window not controlled by AirNav.

 

 
 

Would you like to see your business listed on this page?

 If your business provides an interesting product or service to pilots, flight crews, aircraft, or users of the Stearmans Roost Airport, you should consider listing it here.  To start the listing process, click on the button below
 
Add a business
 

Other Pages about Stearmans Roost Airport

Update a link
 
Copyright © AirNav, LLC. All rights reserved. Privacy Policy  Contact